TimeCST,TemperatureF,Dew PointF,Humidity,Sea Level PressureIn,VisibilityMPH,Wind Direction,Wind SpeedMPH,Gust SpeedMPH,PrecipitationIn,Events,Conditions,WindDirDegrees,DateUTC
12:15 AM,53.6,46.4,77,29.96,10.0,North,16.1,26.5,N/A,,Overcast,10,2014-02-27 06:15:00
12:35 AM,51.8,44.6,76,29.97,9.0,NNE,18.4,25.3,N/A,,Overcast,20,2014-02-27 06:35:00
12:55 AM,51.8,44.6,76,29.97,10.0,North,12.7,23.0,N/A,,Overcast,350,2014-02-27 06:55:00
1:15 AM,53.6,44.6,72,29.97,10.0,Variable,6.9,21.9,N/A,,Overcast,0,2014-02-27 07:15:00
1:35 AM,51.8,44.6,76,29.96,9.0,Variable,6.9,21.9,N/A,,Overcast,0,2014-02-27 07:35:00
1:55 AM,51.8,44.6,76,29.97,10.0,North,15.0,25.3,N/A,,Overcast,10,2014-02-27 07:55:00
2:15 AM,51.8,42.8,71,29.96,10.0,North,16.1,23.0,N/A,,Overcast,10,2014-02-27 08:15:00
2:35 AM,53.6,42.8,67,29.96,10.0,North,15.0,24.2,N/A,,Overcast,10,2014-02-27 08:35:00
2:55 AM,51.8,42.8,71,29.95,10.0,NNE,19.6,25.3,N/A,,Overcast,20,2014-02-27 08:55:00
3:15 AM,51.8,42.8,71,29.97,10.0,North,13.8,23.0,N/A,,Overcast,10,2014-02-27 09:15:00
3:35 AM,53.6,42.8,67,29.98,10.0,Variable,4.6,20.7,N/A,,Overcast,0,2014-02-27 09:35:00
3:55 AM,53.6,42.8,67,29.97,10.0,North,8.1,21.9,N/A,,Overcast,350,2014-02-27 09:55:00
4:15 AM,51.8,42.8,71,29.97,10.0,NNW,8.1,23.0,N/A,,Overcast,340,2014-02-27 10:15:00
4:35 AM,53.6,42.8,67,29.98,10.0,North,16.1,21.9,N/A,,Overcast,10,2014-02-27 10:35:00
4:55 AM,51.8,42.8,71,29.99,10.0,Variable,5.8,23.0,N/A,,Overcast,0,2014-02-27 10:55:00
5:15 AM,51.8,41.0,67,29.99,10.0,NNE,16.1,-,N/A,,Overcast,20,2014-02-27 11:15:00
5:35 AM,51.8,42.8,71,29.98,10.0,North,13.8,24.2,N/A,,Overcast,10,2014-02-27 11:35:00
5:55 AM,51.8,42.8,71,29.99,10.0,North,15.0,25.3,N/A,,Overcast,10,2014-02-27 11:55:00
6:15 AM,51.8,42.8,71,29.99,10.0,North,19.6,26.5,N/A,,Overcast,10,2014-02-27 12:15:00
6:35 AM,51.8,42.8,71,30.01,10.0,NNE,18.4,26.5,N/A,,Overcast,20,2014-02-27 12:35:00
6:55 AM,51.8,42.8,71,30.02,10.0,North,12.7,23.0,N/A,,Overcast,360,2014-02-27 12:55:00
7:15 AM,51.8,41.0,67,30.02,10.0,North,12.7,21.9,N/A,,Overcast,360,2014-02-27 13:15:00
7:35 AM,51.8,41.0,67,30.03,10.0,North,11.5,23.0,N/A,,Overcast,360,2014-02-27 13:35:00
7:55 AM,51.8,42.8,71,30.03,10.0,NNE,20.7,26.5,N/A,,Overcast,20,2014-02-27 13:55:00
8:15 AM,51.8,41.0,67,30.05,10.0,NNE,17.3,24.2,N/A,,Overcast,20,2014-02-27 14:15:00
8:35 AM,51.8,41.0,67,30.06,10.0,North,15.0,23.0,N/A,,Overcast,10,2014-02-27 14:35:00
8:55 AM,51.8,41.0,67,30.07,10.0,North,15.0,23.0,N/A,,Overcast,10,2014-02-27 14:55:00
9:15 AM,51.8,41.0,67,30.07,10.0,NNE,15.0,21.9,N/A,,Mostly Cloudy,20,2014-02-27 15:15:00
9:35 AM,51.8,41.0,67,30.06,10.0,North,12.7,20.7,N/A,,Mostly Cloudy,10,2014-02-27 15:35:00
9:55 AM,51.8,39.2,62,30.07,10.0,NNE,16.1,-,N/A,,Mostly Cloudy,20,2014-02-27 15:55:00
10:15 AM,51.8,39.2,62,30.07,10.0,NNE,12.7,18.4,N/A,,Scattered Clouds,20,2014-02-27 16:15:00
10:35 AM,51.8,41.0,67,30.07,10.0,NNE,12.7,19.6,N/A,,Mostly Cloudy,30,2014-02-27 16:35:00
10:55 AM,51.8,41.0,67,30.07,10.0,NNE,13.8,-,N/A,,Overcast,20,2014-02-27 16:55:00
11:15 AM,51.8,41.0,67,30.07,10.0,NNE,11.5,-,N/A,,Overcast,20,2014-02-27 17:15:00
11:35 AM,50.0,41.0,71,30.07,10.0,NE,9.2,16.1,N/A,,Overcast,40,2014-02-27 17:35:00
11:55 AM,51.8,41.0,67,30.07,10.0,North,11.5,-,N/A,,Overcast,10,2014-02-27 17:55:00
12:15 PM,51.8,39.2,62,30.06,10.0,NNE,12.7,-,N/A,,Overcast,20,2014-02-27 18:15:00
12:35 PM,51.8,39.2,62,30.06,10.0,NNE,11.5,-,N/A,,Overcast,30,2014-02-27 18:35:00
12:55 PM,51.8,39.2,62,30.05,10.0,NNE,10.4,-,N/A,,Mostly Cloudy,20,2014-02-27 18:55:00
1:15 PM,51.8,39.2,62,30.04,10.0,Variable,5.8,13.8,N/A,,Mostly Cloudy,0,2014-02-27 19:15:00
1:35 PM,51.8,39.2,62,30.04,10.0,Variable,4.6,13.8,N/A,,Mostly Cloudy,0,2014-02-27 19:35:00
1:55 PM,51.8,41.0,67,30.03,10.0,Variable,4.6,13.8,N/A,,Mostly Cloudy,0,2014-02-27 19:55:00
2:15 PM,50.0,39.2,66,30.01,10.0,NNE,9.2,-,N/A,,Scattered Clouds,30,2014-02-27 20:15:00
2:35 PM,51.8,39.2,62,30.01,10.0,NNE,10.4,-,N/A,,Partly Cloudy,20,2014-02-27 20:35:00
2:55 PM,51.8,39.2,62,30.02,10.0,Variable,4.6,12.7,N/A,,Partly Cloudy,0,2014-02-27 20:55:00
3:15 PM,51.8,37.4,58,30.01,10.0,NNE,6.9,12.7,N/A,,Partly Cloudy,20,2014-02-27 21:15:00
3:35 PM,51.8,37.4,58,30.01,10.0,Variable,6.9,-,N/A,,Clear,0,2014-02-27 21:35:00
3:55 PM,51.8,37.4,58,30.00,10.0,Variable,4.6,13.8,N/A,,Clear,0,2014-02-27 21:55:00
4:15 PM,51.8,35.6,54,30.01,10.0,Calm,Calm,12.7,N/A,,Clear,0,2014-02-27 22:15:00
4:35 PM,51.8,35.6,54,30.01,10.0,Variable,4.6,12.7,N/A,,Clear,0,2014-02-27 22:35:00
4:55 PM,51.8,35.6,54,30.01,10.0,North,8.1,13.8,N/A,,Clear,360,2014-02-27 22:55:00
5:15 PM,51.8,35.6,54,30.01,10.0,Variable,5.8,15.0,N/A,,Clear,0,2014-02-27 23:15:00
5:35 PM,51.8,35.6,54,30.01,10.0,Variable,4.6,11.5,N/A,,Clear,0,2014-02-27 23:35:00
5:55 PM,51.8,35.6,54,30.01,10.0,North,10.4,-,N/A,,Clear,10,2014-02-27 23:55:00
6:15 PM,50.0,35.6,58,30.01,10.0,NNE,10.4,-,N/A,,Clear,20,2014-02-28 00:15:00
6:35 PM,50.0,37.4,62,30.01,10.0,Variable,5.8,13.8,N/A,,Clear,0,2014-02-28 00:35:00
6:55 PM,50.0,35.6,58,30.02,10.0,NNE,8.1,13.8,N/A,,Clear,20,2014-02-28 00:55:00
7:15 PM,50.0,35.6,58,30.02,10.0,NNE,8.1,-,N/A,,Clear,20,2014-02-28 01:15:00
7:35 PM,51.8,35.6,54,30.02,10.0,Variable,5.8,-,N/A,,Clear,0,2014-02-28 01:35:00
7:55 PM,51.8,35.6,54,30.03,10.0,Calm,Calm,-,N/A,,Clear,0,2014-02-28 01:55:00
8:15 PM,51.8,37.4,58,30.03,10.0,NNE,9.2,-,N/A,,Clear,30,2014-02-28 02:15:00
8:35 PM,51.8,35.6,54,30.03,10.0,NNE,8.1,-,N/A,,Clear,20,2014-02-28 02:35:00
8:55 PM,51.8,35.6,54,30.03,10.0,Variable,5.8,11.5,N/A,,Clear,0,2014-02-28 02:55:00
9:15 PM,51.8,35.6,54,30.03,10.0,North,8.1,-,N/A,,Clear,10,2014-02-28 03:15:00
9:35 PM,51.8,33.8,50,30.03,10.0,Variable,6.9,-,N/A,,Clear,0,2014-02-28 03:35:00
9:55 PM,51.8,35.6,54,30.04,10.0,NNE,9.2,-,N/A,,Clear,30,2014-02-28 03:55:00
10:15 PM,51.8,35.6,54,30.04,10.0,NNE,8.1,-,N/A,,Clear,20,2014-02-28 04:15:00
10:35 PM,51.8,33.8,50,30.04,10.0,NNE,8.1,-,N/A,,Clear,20,2014-02-28 04:35:00
10:55 PM,51.8,35.6,54,30.04,10.0,Calm,Calm,-,N/A,,Clear,0,2014-02-28 04:55:00
11:15 PM,51.8,33.8,50,30.04,10.0,Calm,Calm,-,N/A,,Clear,0,2014-02-28 05:15:00
11:35 PM,51.8,35.6,54,30.05,10.0,Variable,3.5,-,N/A,,Clear,0,2014-02-28 05:35:00
11:55 PM,51.8,35.6,54,30.05,10.0,Calm,Calm,-,N/A,,Clear,0,2014-02-28 05:55:00